Time;durP1;ratioP1;P1;durP2;ratioP2;P2;SDS_P1;SDS_P2;PMS_P1;PMS_P2;Temp;Humidity;BMP_temperature;BMP_pressure;BME280_temperature;BME280_humidity;BME280_pressure;Samples;Min_cycle;Max_cycle;Signal;HPM_P1;HPM_P2
2022/05/17 00:01:36;;;;;;;2.50;2.30;;;;;;;19.48;100.00;98702.66;4983843;28;20508;-62
2022/05/17 00:04:02;;;;;;;2.50;2.40;;;;;;;19.49;100.00;98693.94;5001848;28;20061;-61
2022/05/17 00:06:29;;;;;;;3.03;2.83;;;;;;;19.52;100.00;98704.19;5002130;28;20080;-62
2022/05/17 00:08:54;;;;;;;2.20;2.00;;;;;;;19.52;100.00;98700.72;5002345;28;20029;-61
2022/05/17 00:11:20;;;;;;;4.63;2.95;;;;;;;19.55;100.00;98695.38;5001465;28;20332;-63
2022/05/17 00:13:45;;;;;;;3.72;3.42;;;;;;;19.55;100.00;98698.00;5004210;28;20373;-62
2022/05/17 00:16:11;;;;;;;2.88;2.63;;;;;;;19.60;100.00;98699.41;5003051;28;20159;-61
2022/05/17 00:18:37;;;;;;;10.40;2.60;;;;;;;19.63;100.00;98694.97;4996861;28;20037;-62
2022/05/17 00:21:03;;;;;;;3.40;3.10;;;;;;;19.66;100.00;98684.38;4999464;28;20077;-62
2022/05/17 00:23:29;;;;;;;2.63;2.42;;;;;;;19.67;100.00;98692.13;5001556;28;20507;-62
2022/05/17 00:25:55;;;;;;;3.13;2.83;;;;;;;19.72;100.00;98687.50;5003781;28;20064;-62
2022/05/17 00:28:21;;;;;;;3.72;3.53;;;;;;;19.70;100.00;98691.09;5000858;28;20104;-61
2022/05/17 00:30:48;;;;;;;2.65;2.15;;;;;;;19.67;100.00;98684.31;5000418;28;20038;-62
2022/05/17 00:33:14;;;;;;;2.22;2.03;;;;;;;19.67;100.00;98692.13;5003155;28;20040;-61
2022/05/17 00:35:39;;;;;;;6.15;2.47;;;;;;;19.74;99.96;98683.03;4999183;28;20491;-61
2022/05/17 00:38:05;;;;;;;3.30;2.20;;;;;;;19.69;99.60;98690.25;4999478;28;20614;-61
2022/05/17 00:40:31;;;;;;;2.55;2.38;;;;;;;19.75;98.87;98687.31;4999876;28;20092;-61
2022/05/17 00:42:56;;;;;;;5.70;2.90;;;;;;;19.75;98.39;98689.94;5003446;28;20038;-62
2022/05/17 00:45:21;;;;;;;3.28;2.30;;;;;;;19.74;98.56;98688.25;5002380;28;20458;-62
2022/05/17 00:48:04;;;;;;;4.05;2.78;;;;;;;19.75;98.23;98689.94;5001178;28;20087;-62
2022/05/17 00:50:38;;;;;;;2.67;2.53;;;;;;;19.74;98.63;98690.00;5003744;28;20041;-61
2022/05/17 00:53:08;;;;;;;2.55;2.45;;;;;;;19.75;98.04;98683.88;4998482;28;20136;-61
2022/05/17 00:55:59;;;;;;;8.80;2.40;;;;;;;19.70;98.72;98680.69;4999313;28;20042;-61
2022/05/17 00:58:25;;;;;;;5.80;2.60;;;;;;;19.71;98.74;98680.63;4994391;28;20516;-62
2022/05/17 01:01:13;;;;;;;3.15;2.75;;;;;;;19.72;98.17;98678.84;5001311;28;20053;-60
2022/05/17 01:03:47;;;;;;;4.25;3.40;;;;;;;19.68;98.75;98672.16;4998327;28;20037;-61
2022/05/17 01:06:15;;;;;;;2.50;2.30;;;;;;;19.67;98.42;98668.72;5000560;28;20038;-61
2022/05/17 01:08:41;;;;;;;2.80;2.60;;;;;;;19.70;98.27;98665.09;5002395;28;20037;-61
2022/05/17 01:11:06;;;;;;;2.55;2.42;;;;;;;19.71;98.19;98671.97;5002916;28;20392;-61
2022/05/17 01:16:17;;;;;;;2.53;2.33;;;;;;;19.69;99.15;98671.22;5000409;28;20088;-61
2022/05/17 01:18:43;;;;;;;3.90;2.35;;;;;;;19.69;98.54;98671.22;5001618;28;20037;-61
2022/05/17 01:21:10;;;;;;;3.00;2.42;;;;;;;19.71;98.74;98674.56;5003223;28;20109;-61
2022/05/17 01:23:35;;;;;;;2.67;2.38;;;;;;;19.66;98.90;98667.03;5000678;28;20469;-62
2022/05/17 01:26:03;;;;;;;2.78;2.50;;;;;;;19.63;99.31;98674.16;4998279;28;20321;-61
2022/05/17 01:28:36;;;;;;;4.13;2.40;;;;;;;19.61;99.57;98671.63;4998102;28;20038;-61
2022/05/17 01:31:04;;;;;;;3.50;3.17;;;;;;;19.65;99.16;98678.34;4999363;28;20034;-61
2022/05/17 01:33:32;;;;;;;3.92;2.60;;;;;;;19.66;99.49;98685.22;4998119;28;20324;-61
2022/05/17 01:35:59;;;;;;;8.32;2.95;;;;;;;19.65;99.40;98680.94;5000110;28;20111;-61
2022/05/17 01:38:25;;;;;;;5.28;2.65;;;;;;;19.59;99.15;98679.53;4999190;28;20037;-62
2022/05/17 01:40:51;;;;;;;4.85;2.80;;;;;;;19.62;98.88;98670.72;5000876;28;20033;-61
2022/05/17 01:43:16;;;;;;;4.95;3.20;;;;;;;19.59;99.08;98676.94;5000934;28;20032;-61
2022/05/17 01:45:41;;;;;;;4.53;2.40;;;;;;;19.59;99.66;98657.88;5000265;28;20057;-61
2022/05/17 01:48:07;;;;;;;2.90;2.70;;;;;;;19.53;100.00;98669.44;5000339;28;20042;-61
2022/05/17 01:50:33;;;;;;;3.42;2.67;;;;;;;19.59;100.00;98678.69;5001804;28;20040;-62
2022/05/17 01:52:59;;;;;;;5.32;2.63;;;;;;;19.60;100.00;98675.97;4997947;28;20034;-61
2022/05/17 01:55:24;;;;;;;4.78;2.85;;;;;;;19.51;100.00;98684.31;4999222;28;20041;-61
2022/05/17 01:57:50;;;;;;;3.20;2.53;;;;;;;19.54;99.94;98662.50;4998328;28;20377;-61
2022/05/17 02:00:18;;;;;;;4.82;2.80;;;;;;;19.53;100.00;98664.25;4998116;28;20061;-61
2022/05/17 02:02:43;;;;;;;5.78;2.65;;;;;;;19.51;100.00;98655.72;4999396;28;20237;-61
2022/05/17 02:05:09;;;;;;;2.75;2.30;;;;;;;19.51;100.00;98668.72;5001170;28;20045;-60
2022/05/17 02:07:35;;;;;;;2.90;2.70;;;;;;;19.45;100.00;98660.38;5001203;28;20029;-61
2022/05/17 02:10:00;;;;;;;4.00;2.60;;;;;;;19.48;100.00;98655.84;4999399;28;20038;-61
2022/05/17 02:12:26;;;;;;;6.60;2.47;;;;;;;19.48;100.00;98655.84;4997479;28;20113;-60
2022/05/17 02:14:52;;;;;;;3.60;2.58;;;;;;;19.48;100.00;98660.22;4997963;28;20034;-61
2022/05/17 02:17:17;;;;;;;2.95;2.10;;;;;;;19.45;100.00;98666.44;4998324;28;20248;-61
2022/05/17 02:19:43;;;;;;;5.03;2.78;;;;;;;19.33;100.00;98672.28;4996782;28;20038;-60
2022/05/17 02:22:10;;;;;;;2.53;2.33;;;;;;;19.33;100.00;98674.03;4997595;28;20463;-60
2022/05/17 02:24:37;;;;;;;9.07;2.47;;;;;;;19.37;100.00;98662.53;4998355;28;20049;-61
2022/05/17 02:27:03;;;;;;;4.43;2.33;;;;;;;19.41;100.00;98657.09;4996468;28;20034;-61
2022/05/17 02:29:29;;;;;;;3.88;2.40;;;;;;;19.42;100.00;98670.94;4998406;28;20144;-60
2022/05/17 02:31:55;;;;;;;3.35;2.60;;;;;;;19.39;100.00;98671.91;4998435;28;20099;-61
2022/05/17 02:34:20;;;;;;;2.65;2.45;;;;;;;19.39;100.00;98676.31;4999875;28;21043;-62
2022/05/17 02:36:46;;;;;;;2.90;2.70;;;;;;;19.40;100.00;98680.56;5000096;28;20038;-61
2022/05/17 02:39:12;;;;;;;2.33;2.10;;;;;;;19.43;100.00;98686.50;4997344;28;20093;-61
2022/05/17 02:41:38;;;;;;;3.03;2.50;;;;;;;19.37;100.00;98684.19;4997256;28;20124;-62
2022/05/17 02:44:03;;;;;;;2.60;2.13;;;;;;;19.41;100.00;98695.25;4999336;28;20034;-61
2022/05/17 02:46:30;;;;;;;3.47;2.22;;;;;;;19.42;100.00;98687.38;4998276;28;20038;-63
2022/05/17 02:48:56;;;;;;;3.40;2.40;;;;;;;19.33;100.00;98700.03;5001465;28;20105;-62
2022/05/17 02:51:21;;;;;;;3.70;2.50;;;;;;;19.34;100.00;98694.75;4999528;28;20448;-62
2022/05/17 02:53:47;;;;;;;3.47;2.60;;;;;;;19.27;100.00;98708.13;5003008;28;20030;-62
2022/05/17 02:56:13;;;;;;;6.32;2.47;;;;;;;19.24;100.00;98695.31;4999605;28;20038;-62
2022/05/17 02:58:38;;;;;;;2.75;2.50;;;;;;;19.23;100.00;98698.81;4999061;28;20030;-62
2022/05/17 03:01:06;;;;;;;2.33;2.17;;;;;;;19.26;100.00;98706.47;5000669;28;20577;-63
2022/05/17 03:03:31;;;;;;;2.70;2.45;;;;;;;19.26;100.00;98712.53;5000280;28;20034;-63
2022/05/17 03:05:57;;;;;;;3.30;2.80;;;;;;;19.21;100.00;98708.47;5002036;28;20444;-62
2022/05/17 03:08:22;;;;;;;3.00;2.42;;;;;;;19.11;100.00;98708.94;4998269;28;20029;-62
2022/05/17 03:10:48;;;;;;;4.72;2.60;;;;;;;19.17;100.00;98719.03;4997869;28;20038;-63
2022/05/17 03:13:15;;;;;;;4.47;2.72;;;;;;;19.17;100.00;98720.81;5002648;28;20101;-62
2022/05/17 03:15:41;;;;;;;2.38;2.10;;;;;;;19.15;100.00;98726.06;4999816;28;20189;-60
2022/05/17 03:18:07;;;;;;;4.75;2.50;;;;;;;19.17;100.00;98734.63;4997481;28;20082;-60
2022/05/17 03:20:32;;;;;;;4.03;2.40;;;;;;;19.06;100.00;98729.13;4997166;28;20034;-60
2022/05/17 03:22:58;;;;;;;3.08;2.80;;;;;;;19.15;100.00;98731.25;4996473;28;20487;-60
2022/05/17 03:25:24;;;;;;;2.55;2.25;;;;;;;19.22;100.00;98733.56;4999446;28;20393;-61
2022/05/17 03:27:51;;;;;;;4.03;2.33;;;;;;;19.21;100.00;98724.91;4996719;28;20032;-61
2022/05/17 03:30:16;;;;;;;2.97;2.53;;;;;;;19.19;100.00;98734.53;5000022;28;20044;-62
2022/05/17 03:32:42;;;;;;;2.42;2.30;;;;;;;19.15;100.00;98731.25;4999783;28;20026;-62
2022/05/17 03:35:08;;;;;;;3.85;2.60;;;;;;;19.11;100.00;98742.75;4996196;28;20479;-62
2022/05/17 03:37:34;;;;;;;3.63;2.20;;;;;;;19.11;100.00;98740.13;4997337;28;20029;-61
2022/05/17 03:39:59;;;;;;;3.60;2.25;;;;;;;19.10;100.00;98740.22;5000321;28;20045;-62
2022/05/17 03:42:25;;;;;;;2.00;1.80;;;;;;;19.08;100.00;98744.66;5003416;28;20109;-63
2022/05/17 03:44:50;;;;;;;3.45;2.00;;;;;;;19.06;100.00;98755.13;4997381;28;20464;-61
2022/05/17 03:47:16;;;;;;;5.43;3.20;;;;;;;18.97;100.00;98755.59;4998163;28;20067;-62
2022/05/17 03:49:41;;;;;;;2.55;2.40;;;;;;;19.01;100.00;98764.09;5002456;28;20380;-61
2022/05/17 03:52:08;;;;;;;2.67;2.45;;;;;;;18.96;100.00;98755.69;5003310;28;20056;-62
2022/05/17 03:54:34;;;;;;;2.50;2.30;;;;;;;18.98;100.00;98756.44;5000020;28;20060;-62
2022/05/17 03:57:00;;;;;;;2.58;2.25;;;;;;;18.90;100.00;98767.22;5002754;28;20022;-60
2022/05/17 03:59:25;;;;;;;5.35;2.85;;;;;;;18.95;100.00;98767.84;5005408;28;20037;-62
2022/05/17 04:01:51;;;;;;;4.10;2.22;;;;;;;18.87;100.00;98756.16;5004045;28;20483;-62
2022/05/17 04:04:16;;;;;;;4.40;2.22;;;;;;;18.90;100.00;98762.03;5001564;28;20040;-62
2022/05/17 04:06:42;;;;;;;3.38;3.03;;;;;;;18.92;100.00;98768.00;5001328;28;20056;-61
2022/05/17 04:09:10;;;;;;;2.58;2.42;;;;;;;18.81;100.00;98759.88;5004540;28;20045;-62
2022/05/17 04:11:36;;;;;;;2.88;2.65;;;;;;;18.78;100.00;98762.66;5003433;28;20042;-60
2022/05/17 04:14:03;;;;;;;3.58;2.28;;;;;;;18.71;100.00;98756.91;5001922;28;20037;-60
2022/05/17 04:16:33;;;;;;;2.38;2.08;;;;;;;18.62;100.00;98757.38;5000405;28;20060;-61
2022/05/17 04:18:59;;;;;;;3.03;2.70;;;;;;;18.56;100.00;98746.44;5003895;28;20369;-59
2022/05/17 04:21:25;;;;;;;2.53;2.30;;;;;;;18.49;100.00;98753.69;5003816;28;20383;-61
2022/05/17 04:23:52;;;;;;;2.85;2.42;;;;;;;18.54;100.00;98748.28;5001147;28;20117;-61
2022/05/17 04:26:18;;;;;;;2.88;2.08;;;;;;;18.41;100.00;98748.03;5003105;28;20503;-62
2022/05/17 04:28:44;;;;;;;2.92;2.55;;;;;;;18.48;100.00;98753.75;5006175;28;20030;-60
2022/05/17 04:31:09;;;;;;;4.22;2.03;;;;;;;18.43;100.00;98746.16;5002992;28;20041;-60
2022/05/17 04:33:34;;;;;;;3.80;2.53;;;;;;;18.34;100.00;98749.22;5001156;28;20026;-61
2022/05/17 04:36:00;;;;;;;4.75;2.13;;;;;;;18.35;100.00;98748.31;5003199;28;20464;-60
2022/05/17 04:38:26;;;;;;;5.28;2.33;;;;;;;18.35;100.00;98752.66;5001484;28;20333;-60
2022/05/17 04:40:51;;;;;;;4.72;2.00;;;;;;;18.34;100.00;98758.75;4999777;28;20030;-60
2022/05/17 04:43:17;;;;;;;5.03;2.58;;;;;;;18.35;100.00;98758.69;4999761;28;20365;-62
2022/05/17 04:45:44;;;;;;;3.17;2.50;;;;;;;18.39;100.00;98756.78;5004285;28;20040;-62
2022/05/17 04:48:10;;;;;;;2.42;2.05;;;;;;;18.38;100.00;98771.50;5003637;28;20454;-62
2022/05/17 04:50:37;;;;;;;2.97;2.65;;;;;;;18.32;100.00;98773.56;5000718;28;20038;-63
2022/05/17 04:53:03;;;;;;;3.75;2.80;;;;;;;18.25;100.00;98776.44;5001454;28;20030;-63
2022/05/17 04:55:29;;;;;;;2.60;2.40;;;;;;;18.29;100.00;98789.31;5002651;28;20057;-62
2022/05/17 04:57:54;;;;;;;3.03;2.50;;;;;;;18.33;100.00;98785.66;5004018;28;20053;-62
2022/05/17 05:00:24;;;;;;;3.50;2.75;;;;;;;18.29;100.00;98795.31;4998118;28;20164;-62
2022/05/17 05:02:50;;;;;;;4.50;3.78;;;;;;;18.24;100.00;98787.78;4999994;28;20030;-60
2022/05/17 05:05:17;;;;;;;4.38;3.25;;;;;;;18.36;100.00;98798.47;5004025;28;20530;-61
2022/05/17 05:07:43;;;;;;;6.85;4.45;;;;;;;18.23;100.00;98796.47;5002923;28;20042;-60
2022/05/17 05:10:10;;;;;;;3.08;2.78;;;;;;;18.39;100.00;98791.38;4998243;28;20042;-61
2022/05/17 05:12:35;;;;;;;4.20;3.25;;;;;;;18.25;100.00;98793.78;5001576;28;20030;-61
2022/05/17 05:15:02;;;;;;;4.00;3.08;;;;;;;18.37;100.00;98795.81;4986751;28;20372;-59
2022/05/17 05:17:32;;;;;;;3.67;3.38;;;;;;;18.30;100.00;98789.22;4983186;28;20076;-58
2022/05/17 05:19:59;;;;;;;4.15;3.17;;;;;;;18.23;100.00;98790.44;4978788;28;20034;-59
2022/05/17 05:22:25;;;;;;;2.90;2.65;;;;;;;18.28;100.00;98778.06;4982833;28;20030;-60
2022/05/17 05:24:51;;;;;;;4.22;3.35;;;;;;;18.45;100.00;98783.31;4982864;28;20143;-56
2022/05/17 05:27:17;;;;;;;5.00;3.08;;;;;;;18.34;100.00;98782.97;4980903;28;20470;-58
2022/05/17 05:29:42;;;;;;;4.72;2.92;;;;;;;18.30;100.00;98763.25;4982180;28;20041;-59
2022/05/17 05:32:08;;;;;;;5.03;3.25;;;;;;;18.43;100.00;98781.69;4982126;28;20030;-58
2022/05/17 05:34:34;;;;;;;2.92;2.70;;;;;;;18.51;100.00;98779.53;4984145;28;20369;-60
2022/05/17 05:37:00;;;;;;;3.55;3.25;;;;;;;18.53;100.00;98773.41;4981375;28;20041;-59
2022/05/17 05:39:25;;;;;;;4.95;3.10;;;;;;;18.62;100.00;98774.72;4978764;28;20039;-58
2022/05/17 05:41:52;;;;;;;3.47;2.40;;;;;;;18.57;100.00;98764.56;4981502;28;20120;-59
2022/05/17 05:44:18;;;;;;;3.53;2.88;;;;;;;18.63;100.00;98778.97;4981031;28;20066;-59
2022/05/17 05:46:44;;;;;;;3.30;2.90;;;;;;;18.62;100.00;98777.31;4978875;28;20492;-59
2022/05/17 05:49:10;;;;;;;3.45;2.83;;;;;;;18.62;100.00;98779.91;4980203;28;20445;-59
2022/05/17 05:51:36;;;;;;;3.10;2.90;;;;;;;18.71;100.00;98788.06;4982300;28;20121;-59
2022/05/17 05:54:02;;;;;;;4.38;2.85;;;;;;;18.74;100.00;98781.91;4982084;28;20548;-60
2022/05/17 05:56:28;;;;;;;3.45;2.75;;;;;;;18.63;100.00;98791.97;4976594;28;20048;-59
2022/05/17 05:58:53;;;;;;;2.83;2.60;;;;;;;18.49;100.00;98784.00;4979139;28;20034;-59
2022/05/17 06:01:19;;;;;;;2.55;2.35;;;;;;;18.49;100.00;98792.63;4982099;28;20085;-59
2022/05/17 06:03:44;;;;;;;4.65;2.92;;;;;;;18.45;100.00;98779.84;4982759;28;20365;-59
2022/05/17 06:06:09;;;;;;;2.75;2.55;;;;;;;18.49;100.00;98800.41;4982722;28;20393;-58
2022/05/17 06:08:36;;;;;;;2.70;2.50;;;;;;;18.42;100.00;98799.00;4980847;28;20040;-58
2022/05/17 06:11:01;;;;;;;2.92;2.60;;;;;;;18.47;100.00;98798.78;4984399;28;20031;-57
2022/05/17 06:13:28;;;;;;;4.40;2.75;;;;;;;18.47;100.00;98788.41;4982670;28;20038;-58
2022/05/17 06:15:53;;;;;;;3.65;3.45;;;;;;;18.56;100.00;98778.44;4982691;28;20066;-60
2022/05/17 06:18:19;;;;;;;3.65;3.35;;;;;;;18.58;100.00;98783.56;4999482;28;20042;-60
2022/05/17 06:20:52;;;;;;;4.35;2.88;;;;;;;18.53;100.00;98781.19;5000247;28;20038;-59
2022/05/17 06:23:19;;;;;;;3.65;3.40;;;;;;;18.52;100.00;98783.84;5000564;28;20115;-58
2022/05/17 06:25:45;;;;;;;3.67;3.38;;;;;;;18.64;100.00;98778.06;4998034;28;20091;-52
2022/05/17 06:28:10;;;;;;;5.65;3.47;;;;;;;18.59;100.00;98780.03;5001601;28;20049;-57
2022/05/17 06:30:37;;;;;;;3.50;3.20;;;;;;;18.68;100.00;98772.66;5001546;28;20034;-60
2022/05/17 06:33:06;;;;;;;4.90;4.00;;;;;;;18.64;100.00;98775.47;4997555;28;20554;-61
2022/05/17 06:35:31;;;;;;;4.05;3.70;;;;;;;18.88;100.00;98782.06;4997779;28;20037;-61
2022/05/17 06:37:57;;;;;;;3.67;3.38;;;;;;;18.88;100.00;98781.22;5002741;28;20037;-61
2022/05/17 06:40:22;;;;;;;4.82;3.33;;;;;;;19.13;100.00;98798.09;5002545;28;20865;-60
2022/05/17 06:42:47;;;;;;;4.38;4.00;;;;;;;19.22;100.00;98799.38;4999245;28;20088;-60
2022/05/17 06:45:13;;;;;;;4.10;3.72;;;;;;;19.35;100.00;98790.00;4997426;28;20034;-61
2022/05/17 06:47:40;;;;;;;3.20;3.00;;;;;;;19.38;100.00;98792.47;5001295;28;20030;-61
2022/05/17 06:50:06;;;;;;;4.38;3.67;;;;;;;19.44;100.00;98783.53;5002783;28;20037;-61
2022/05/17 06:52:32;;;;;;;3.60;3.30;;;;;;;19.34;100.00;98797.91;4997500;28;20034;-60
2022/05/17 06:54:57;;;;;;;3.72;3.10;;;;;;;19.30;100.00;98793.78;4997869;28;20544;-61
2022/05/17 06:57:23;;;;;;;4.85;3.53;;;;;;;19.35;100.00;98795.22;5000399;28;20037;-61
2022/05/17 06:59:48;;;;;;;12.82;7.63;;;;;;;19.16;100.00;98800.53;5002101;28;20033;-61
2022/05/17 07:02:14;;;;;;;5.63;5.13;;;;;;;19.20;100.00;98801.22;4996425;28;20116;-60
2022/05/17 07:04:39;;;;;;;6.15;3.55;;;;;;;19.03;100.00;98793.44;4988316;28;20037;-60
2022/05/17 07:07:06;;;;;;;3.30;3.03;;;;;;;18.90;100.00;98800.16;5000578;28;20026;-60
2022/05/17 07:09:33;;;;;;;3.33;3.10;;;;;;;18.80;100.00;98804.97;4999891;28;20026;-60
2022/05/17 07:14:43;;;;;;;3.10;2.88;;;;;;;18.83;100.00;98816.97;4999272;28;20037;-61
2022/05/17 07:17:12;;;;;;;3.10;2.85;;;;;;;18.93;100.00;98794.78;4999372;28;20992;-60
2022/05/17 07:19:38;;;;;;;4.60;3.33;;;;;;;19.04;100.00;98803.75;4999923;28;20038;-59
2022/05/17 07:22:05;;;;;;;2.85;2.65;;;;;;;18.88;100.00;98789.00;4998460;28;20038;-61
2022/05/17 07:24:32;;;;;;;3.47;3.05;;;;;;;19.09;100.00;98799.19;4999620;28;20025;-59
2022/05/17 07:26:58;;;;;;;3.53;3.13;;;;;;;19.16;100.00;98797.94;5003441;28;20627;-60
2022/05/17 07:29:24;;;;;;;5.43;4.07;;;;;;;19.36;100.00;98817.69;5003073;28;20061;-61
2022/05/17 07:31:50;;;;;;;5.97;4.93;;;;;;;19.48;100.00;98816.25;5001502;28;20555;-61
2022/05/17 07:34:16;;;;;;;3.03;2.83;;;;;;;19.88;100.00;98810.63;5004379;28;20121;-62
2022/05/17 07:36:41;;;;;;;3.60;3.30;;;;;;;20.03;100.00;98819.38;5005642;28;20492;-61
2022/05/17 07:39:07;;;;;;;3.70;3.40;;;;;;;20.08;100.00;98813.00;5003033;28;20037;-61
2022/05/17 07:41:32;;;;;;;5.50;4.65;;;;;;;20.08;100.00;98820.81;5001319;28;20036;-60
2022/05/17 07:43:58;;;;;;;4.43;4.00;;;;;;;19.95;100.00;98817.19;5003424;28;20034;-61
2022/05/17 07:46:23;;;;;;;7.80;4.55;;;;;;;19.89;100.00;98820.13;4999748;28;20030;-60
2022/05/17 07:48:49;;;;;;;4.50;4.03;;;;;;;19.65;100.00;98820.59;4999970;28;20088;-60
2022/05/17 07:51:14;;;;;;;4.32;4.00;;;;;;;19.73;100.00;98821.03;5001424;28;20488;-60
2022/05/17 07:53:40;;;;;;;4.03;3.83;;;;;;;19.45;100.00;98824.22;5002792;28;20041;-60
2022/05/17 07:56:06;;;;;;;4.80;4.40;;;;;;;19.52;100.00;98828.16;5001836;28;20076;-61
2022/05/17 07:58:31;;;;;;;4.13;3.78;;;;;;;19.43;100.00;98820.88;5000784;28;20026;-61
2022/05/17 08:00:57;;;;;;;4.57;4.18;;;;;;;19.39;100.00;98809.72;5000805;28;20034;-61
2022/05/17 08:03:22;;;;;;;5.15;4.65;;;;;;;19.28;100.00;98822.44;5002467;28;20437;-60
2022/05/17 08:05:51;;;;;;;4.57;4.07;;;;;;;19.11;100.00;98812.91;5002554;28;20538;-60
2022/05/17 08:08:16;;;;;;;3.78;3.28;;;;;;;19.12;100.00;98829.34;5002193;28;20121;-61
2022/05/17 08:10:41;;;;;;;3.75;3.45;;;;;;;19.20;100.00;98821.16;5000304;28;20044;-61
2022/05/17 08:13:07;;;;;;;4.15;3.85;;;;;;;18.99;100.00;98821.34;5003950;28;20105;-63
2022/05/17 08:15:33;;;;;;;5.45;3.65;;;;;;;19.13;100.00;98829.28;5001989;28;20045;-61
2022/05/17 08:18:01;;;;;;;4.80;4.50;;;;;;;19.36;100.00;98816.84;5001271;28;20053;-61
2022/05/17 08:20:27;;;;;;;3.38;3.08;;;;;;;19.30;100.00;98823.22;5000334;28;20072;-60
2022/05/17 08:22:53;;;;;;;5.97;5.38;;;;;;;19.51;100.00;98818.72;5002735;28;20120;-61
2022/05/17 08:28:05;;;;;;;5.10;3.75;;;;;;;19.59;100.00;98821.75;4999638;28;20496;-61
2022/05/17 08:30:32;;;;;;;5.22;3.63;;;;;;;19.63;100.00;98819.81;5002501;28;20042;-60
2022/05/17 08:33:14;;;;;;;6.90;4.55;;;;;;;19.81;100.00;98827.50;5002378;28;20379;-60
2022/05/17 08:35:52;;;;;;;3.60;3.35;;;;;;;19.81;100.00;98822.31;4986663;28;20049;-60
2022/05/17 08:38:23;;;;;;;3.40;3.10;;;;;;;19.66;100.00;98820.50;5001538;28;20136;-60
2022/05/17 08:41:06;;;;;;;4.10;2.92;;;;;;;19.96;100.00;98820.63;5002061;28;20061;-59
2022/05/17 08:43:50;;;;;;;3.20;2.97;;;;;;;19.75;100.00;98825.22;5000463;28;20033;-60
2022/05/17 08:46:37;;;;;;;3.67;3.38;;;;;;;19.79;100.00;98818.09;4998732;28;20778;-60
2022/05/17 08:49:23;;;;;;;5.25;3.45;;;;;;;19.95;100.00;98819.78;5002427;28;20341;-59
2022/05/17 08:51:57;;;;;;;3.10;2.90;;;;;;;20.20;100.00;98818.47;5002267;28;20057;-60
2022/05/17 08:54:30;;;;;;;3.35;3.15;;;;;;;20.42;100.00;98814.59;4999216;28;20132;-60
2022/05/17 08:57:06;;;;;;;3.53;3.33;;;;;;;20.31;100.00;98822.19;4999308;28;20026;-61
2022/05/17 08:59:35;;;;;;;4.05;3.65;;;;;;;20.37;100.00;98810.56;5001345;28;20036;-60
2022/05/17 09:02:10;;;;;;;3.47;3.20;;;;;;;20.27;100.00;98827.63;5001784;28;20040;-60
2022/05/17 09:04:42;;;;;;;3.60;3.30;;;;;;;20.26;100.00;98815.50;4998815;28;20484;-60
2022/05/17 09:07:24;;;;;;;3.10;2.90;;;;;;;20.28;100.00;98809.31;5001666;28;20045;-61
2022/05/17 09:10:09;;;;;;;5.00;4.60;;;;;;;19.99;100.00;98810.88;5003697;28;20037;-60
2022/05/17 09:13:01;;;;;;;4.05;3.75;;;;;;;19.85;100.00;98807.38;4999033;28;20417;-60
2022/05/17 09:15:27;;;;;;;4.40;3.40;;;;;;;19.98;100.00;98801.41;4999215;28;20045;-60
2022/05/17 09:17:53;;;;;;;4.00;3.58;;;;;;;19.96;100.00;98800.66;5002215;28;20385;-61
2022/05/17 09:20:25;;;;;;;4.13;3.28;;;;;;;20.18;100.00;98817.69;5001484;28;20039;-64
2022/05/17 09:22:50;;;;;;;6.30;4.15;;;;;;;20.13;100.00;98812.75;4999222;28;20038;-60
2022/05/17 09:25:49;;;;;;;4.22;3.88;;;;;;;20.10;100.00;98804.25;4998846;28;20066;-59
2022/05/17 09:28:25;;;;;;;5.93;3.53;;;;;;;19.97;100.00;98812.75;5001949;28;20040;-58
2022/05/17 09:31:12;;;;;;;5.25;4.30;;;;;;;20.11;99.97;98816.38;4998171;28;20104;-59
2022/05/17 09:33:40;;;;;;;4.47;3.78;;;;;;;20.13;100.00;98806.69;4999100;28;20459;-60
2022/05/17 09:36:07;;;;;;;3.25;2.95;;;;;;;20.27;98.98;98804.19;5001817;28;20030;-60
2022/05/17 09:38:37;;;;;;;3.92;3.63;;;;;;;20.62;96.71;98792.66;5000744;28;20443;-59
2022/05/17 09:41:07;;;;;;;4.07;3.67;;;;;;;20.91;94.74;98791.81;4997738;28;20377;-59
2022/05/17 09:43:39;;;;;;;4.43;4.03;;;;;;;21.30;94.69;98791.25;4999011;28;20064;-60
2022/05/17 09:46:16;;;;;;;4.78;3.63;;;;;;;21.10;90.13;98788.09;5002626;28;20629;-59
2022/05/17 09:54:48;;;;;;;5.45;3.67;;;;;;;21.25;89.92;98784.63;5001904;28;20180;-56
2022/05/17 09:57:30;;;;;;;4.47;4.07;;;;;;;21.08;90.14;98793.44;4999935;28;20043;-58
2022/05/17 10:00:12;;;;;;;7.25;4.45;;;;;;;20.82;92.58;98800.16;4999935;28;20045;-59
2022/05/17 10:02:55;;;;;;;4.30;3.90;;;;;;;20.87;93.08;98795.53;5000396;28;20041;-60
2022/05/17 10:05:27;;;;;;;4.88;3.55;;;;;;;20.85;93.19;98804.34;5002217;28;20032;-60
2022/05/17 10:08:12;;;;;;;4.30;3.97;;;;;;;20.84;93.15;98803.50;5001061;28;20057;-59
2022/05/17 10:10:57;;;;;;;;;;;;;;;20.90;93.09;98800.56;4999161;28;20112;-60
2022/05/17 10:13:30;;;;;;;4.55;3.65;;;;;;;20.81;92.93;98802.84;4997716;28;19970;-61
2022/05/17 10:16:01;;;;;;;5.53;4.95;;;;;;;21.05;93.66;98792.78;5000348;28;20137;-62
2022/05/17 10:18:38;;;;;;;7.88;5.20;;;;;;;20.97;92.12;98794.03;4999000;28;20044;-60
2022/05/17 10:21:23;;;;;;;5.43;4.53;;;;;;;21.07;93.34;98785.69;4996193;28;20041;-62
2022/05/17 10:23:57;;;;;;;7.13;4.85;;;;;;;21.10;93.59;98777.69;4998978;28;20195;-62
2022/05/17 10:26:29;;;;;;;;;;;;;;;21.08;91.57;98769.13;5000455;28;20479;-61
2022/05/17 10:29:21;;;;;;;5.88;4.70;;;;;;;21.06;91.64;98797.03;4999716;28;20008;-61
2022/05/17 10:32:10;;;;;;;5.13;4.63;;;;;;;21.53;91.58;98787.25;4997992;28;20424;-61
2022/05/17 10:35:02;;;;;;;7.88;4.45;;;;;;;21.26;91.06;98779.31;4999607;28;20540;-61
2022/05/17 10:37:38;;;;;;;4.75;4.30;;;;;;;21.10;91.25;98781.13;4972221;28;20443;-61
2022/05/17 10:40:09;;;;;;;4.22;3.83;;;;;;;20.99;92.62;98773.13;4998393;28;20057;-61
2022/05/17 10:42:37;;;;;;;4.53;3.67;;;;;;;20.42;96.20;98772.94;5001094;28;20064;-61
2022/05/17 10:45:05;;;;;;;5.20;4.38;;;;;;;20.70;95.87;98810.47;4983566;28;20521;-61
2022/05/17 10:48:04;;;;;;;6.15;4.28;;;;;;;21.14;95.58;98779.22;4998519;28;20031;-61
2022/05/17 10:50:56;;;;;;;5.90;3.63;;;;;;;21.19;92.17;98779.78;4997877;28;20068;-61
2022/05/17 10:53:39;;;;;;;7.05;4.45;;;;;;;21.24;91.74;98777.75;4967719;28;20046;-60
2022/05/17 10:56:34;;;;;;;5.60;4.40;;;;;;;21.10;93.00;98791.56;4965653;28;20041;-61
2022/05/17 10:59:04;;;;;;;5.37;4.10;;;;;;;21.28;92.54;98792.28;4964144;28;20055;-61
2022/05/17 11:01:46;;;;;;;5.80;4.05;;;;;;;21.02;93.08;98790.34;4966267;28;20070;-60
2022/05/17 11:04:29;;;;;;;6.63;4.85;;;;;;;20.88;94.11;98793.75;4970940;28;20805;-61
2022/05/17 11:07:12;;;;;;;5.88;4.22;;;;;;;20.83;95.90;98786.22;4969515;28;20034;-61
2022/05/17 11:09:44;;;;;;;5.03;4.53;;;;;;;20.75;97.32;98801.44;4969928;28;20603;-61
2022/05/17 11:12:12;;;;;;;5.47;4.30;;;;;;;20.72;97.62;98785.97;4970290;28;20053;-61
2022/05/17 11:14:50;;;;;;;8.13;6.50;;;;;;;20.33;100.00;98803.84;4969502;28;20133;-62
2022/05/17 11:17:36;;;;;;;8.63;5.47;;;;;;;20.37;100.00;98798.38;4967840;28;20054;-61
2022/05/17 11:20:14;;;;;;;5.10;4.60;;;;;;;19.87;100.00;98810.72;4970262;28;20046;-61
2022/05/17 11:22:49;;;;;;;6.03;4.43;;;;;;;19.94;100.00;98797.28;4971636;28;20060;-61
2022/05/17 11:25:44;;;;;;;9.27;5.28;;;;;;;20.05;100.00;98783.69;4968813;28;20030;-61
2022/05/17 11:28:17;;;;;;;9.18;5.50;;;;;;;20.13;100.00;98796.28;4968552;28;20043;-62
2022/05/17 11:30:55;;;;;;;5.78;5.18;;;;;;;20.06;100.00;98799.25;4990560;28;20073;-61
2022/05/17 11:33:24;;;;;;;7.22;5.90;;;;;;;19.97;100.00;98811.91;5001222;28;20668;-61
2022/05/17 11:35:55;;;;;;;9.82;5.97;;;;;;;19.91;100.00;98788.78;4995273;28;20048;-61
2022/05/17 11:38:41;;;;;;;5.43;4.75;;;;;;;20.14;100.00;98780.59;5001417;28;20038;-61
2022/05/17 11:41:14;;;;;;;6.30;4.78;;;;;;;19.80;100.00;98783.34;5002835;28;20033;-61
2022/05/17 11:43:44;;;;;;;10.30;7.55;;;;;;;19.81;100.00;98800.66;5000088;28;20481;-59
2022/05/17 11:46:25;;;;;;;12.70;11.63;;;;;;;19.93;100.00;98794.78;5002104;28;20420;-60
2022/05/17 11:48:58;;;;;;;25.08;9.85;;;;;;;19.96;100.00;98792.84;5003881;28;20510;-61
2022/05/17 11:51:28;;;;;;;195.05;182.57;;;;;;;20.16;100.00;98783.09;5001976;28;20104;-60